createdAt,value
2019-03-04T00:01:15.805Z,96227.66
2019-03-04T00:03:47.369Z,96228.47
2019-03-04T00:06:20.122Z,96239.22
2019-03-04T00:08:51.342Z,96226.83
2019-03-04T00:11:22.836Z,96223.44
2019-03-04T00:14:00.076Z,96223.45
2019-03-04T00:16:31.691Z,96224.27
2019-03-04T00:19:03.052Z,96214.80
2019-03-04T00:21:34.749Z,96212.23
2019-03-04T00:24:07.201Z,96207.97
2019-03-04T00:26:38.535Z,96194.72
2019-03-04T00:29:10.041Z,96196.44
2019-03-04T00:31:41.381Z,96194.70
2019-03-04T00:34:13.699Z,96202.38
2019-03-04T00:36:45.389Z,96187.40
2019-03-04T00:39:16.864Z,96183.95
2019-03-04T00:41:48.671Z,96189.03
2019-03-04T00:44:20.100Z,96195.00
2019-03-04T00:46:52.678Z,96182.20
2019-03-04T00:49:24.048Z,96184.34
2019-03-04T00:51:55.229Z,96175.37
2019-03-04T00:54:26.676Z,96174.94
2019-03-04T00:56:57.885Z,96169.34
2019-03-04T00:59:31.329Z,96167.23
2019-03-04T01:02:03.136Z,96159.55
2019-03-04T01:04:34.503Z,96172.79
2019-03-04T01:07:05.962Z,96156.09
2019-03-04T01:09:37.880Z,96154.80
2019-03-04T01:12:09.210Z,96153.92
2019-03-04T01:14:40.727Z,96150.94
2019-03-04T01:17:12.088Z,96159.16
2019-03-04T01:19:43.449Z,96150.19
2019-03-04T01:22:15.075Z,96143.81
2019-03-04T01:24:46.328Z,96139.98
2019-03-04T01:27:17.689Z,96134.45
2019-03-04T01:29:49.265Z,96131.45
2019-03-04T01:32:20.621Z,96131.06
2019-03-04T01:34:51.811Z,96123.36
2019-03-04T01:37:23.066Z,96120.34
2019-03-04T01:39:54.261Z,96115.19
2019-03-04T01:42:25.924Z,96112.55
2019-03-04T01:44:57.500Z,96104.36
2019-03-04T01:47:28.693Z,96094.44
2019-03-04T01:50:00.325Z,96085.78
2019-03-04T01:52:31.671Z,96079.69
2019-03-04T01:55:03.187Z,96072.33
2019-03-04T01:57:34.450Z,96058.58
2019-03-04T02:00:07.882Z,96056.36
2019-03-04T02:02:39.704Z,96047.27
2019-03-04T02:05:11.619Z,96047.69
2019-03-04T02:07:43.538Z,96042.53
2019-03-04T02:10:17.295Z,96047.20
2019-03-04T02:12:48.739Z,96052.01
2019-03-04T02:15:20.691Z,96045.27
2019-03-04T02:17:51.955Z,96038.92
2019-03-04T02:20:23.882Z,96040.72
2019-03-04T02:22:55.297Z,96038.69
2019-03-04T02:26:15.763Z,96034.89
2019-03-04T02:28:46.994Z,96022.99
2019-03-04T02:31:20.146Z,96019.67
2019-03-04T02:33:51.289Z,96005.99
2019-03-04T02:36:22.456Z,95991.90
2019-03-04T02:38:53.684Z,95994.05
2019-03-04T02:41:25.423Z,95991.91
2019-03-04T02:43:57.920Z,95993.23
2019-03-04T02:46:29.539Z,95989.43
2019-03-04T02:49:01.145Z,95982.17
2019-03-04T02:51:32.831Z,95981.32
2019-03-04T02:54:04.154Z,95981.31
2019-03-04T02:56:35.438Z,95965.94
2019-03-04T02:59:06.764Z,95968.52
2019-03-04T03:01:38.237Z,95961.25
2019-03-04T03:04:09.676Z,95957.83
2019-03-04T03:06:41.041Z,95949.30
2019-03-04T03:09:13.835Z,95949.30
2019-03-04T03:11:45.124Z,95942.89
2019-03-04T03:14:17.655Z,95928.36
2019-03-04T03:16:50.104Z,95922.35
2019-03-04T03:19:21.535Z,95914.66
2019-03-04T03:21:53.045Z,95911.67
2019-03-04T03:24:24.465Z,95911.23
2019-03-04T03:26:55.701Z,95911.23
2019-03-04T03:29:26.854Z,95909.52
2019-03-04T03:31:58.060Z,95896.27
2019-03-04T03:34:29.225Z,95893.73
2019-03-04T03:37:00.680Z,95892.45
2019-03-04T03:39:31.863Z,95886.05
2019-03-04T03:42:03.101Z,95881.75
2019-03-04T03:44:34.528Z,95872.79
2019-03-04T03:47:05.844Z,95880.91
2019-03-04T03:49:37.381Z,95874.49
2019-03-04T03:52:08.764Z,95872.76
2019-03-04T03:54:40.069Z,95860.38
2019-03-04T03:57:11.745Z,95853.94
2019-03-04T03:59:43.145Z,95845.81
2019-03-04T04:02:15.159Z,95844.05
2019-03-04T04:04:46.461Z,95853.00
2019-03-04T04:07:17.890Z,95839.80
2019-03-04T04:09:50.089Z,95838.09
2019-03-04T04:12:21.458Z,95830.45
2019-03-04T04:14:53.462Z,95827.42
2019-03-04T04:17:24.705Z,95826.56
2019-03-04T04:19:56.265Z,95829.54
2019-03-04T04:22:27.696Z,95827.80
2019-03-04T04:24:58.919Z,95821.78
2019-03-04T04:27:30.279Z,95824.83
2019-03-04T04:30:01.562Z,95825.70
2019-03-04T04:32:34.591Z,95822.75
2019-03-04T04:35:06.301Z,95822.31
2019-03-04T04:37:37.926Z,95822.76
2019-03-04T04:40:09.631Z,95812.09
2019-03-04T04:42:41.186Z,95816.34
2019-03-04T04:45:13.081Z,95812.92
2019-03-04T04:47:44.585Z,95818.02
2019-03-04T04:50:16.167Z,95805.21
2019-03-04T04:52:47.402Z,95803.53
2019-03-04T04:55:18.771Z,95798.83
2019-03-04T04:57:50.475Z,95780.47
2019-03-04T05:00:21.815Z,95774.51
2019-03-04T05:02:53.133Z,95764.23
2019-03-04T05:05:24.546Z,95756.55
2019-03-04T05:07:56.190Z,95753.16
2019-03-04T05:10:27.522Z,95753.52
2019-03-04T05:12:59.061Z,95749.68
2019-03-04T05:15:30.843Z,95751.36
2019-03-04T05:18:02.451Z,95766.22
2019-03-04T05:20:33.739Z,95757.22
2019-03-04T05:23:05.180Z,95754.55
2019-03-04T05:25:36.508Z,95745.08
2019-03-04T05:28:07.827Z,95744.59
2019-03-04T05:30:39.337Z,95736.87
2019-03-04T05:33:10.723Z,95729.20
2019-03-04T05:35:41.905Z,95721.11
2019-03-04T05:38:13.440Z,95718.17
2019-03-04T05:40:44.696Z,95715.14
2019-03-04T05:43:15.952Z,95702.23
2019-03-04T05:45:47.379Z,95714.53
2019-03-04T05:48:18.796Z,95711.91
2019-03-04T05:50:50.148Z,95716.09
2019-03-04T05:53:21.446Z,95714.34
2019-03-04T05:55:52.743Z,95699.91
2019-03-04T05:58:23.975Z,95702.56
2019-03-04T06:01:18.747Z,95691.91
2019-03-04T06:03:51.237Z,95677.41
2019-03-04T06:06:59.683Z,95632.77
2019-03-04T06:09:31.005Z,95610.58
2019-03-04T06:12:02.293Z,95581.58
2019-03-04T06:14:33.619Z,95591.91
2019-03-04T06:17:05.492Z,95617.13
2019-03-04T06:19:37.012Z,95618.48
2019-03-04T06:22:08.401Z,95621.53
2019-03-04T06:24:39.634Z,95614.80
2019-03-04T06:27:10.975Z,95614.41
2019-03-04T06:29:42.258Z,95620.80
2019-03-04T06:32:13.581Z,95609.72
2019-03-04T06:34:44.777Z,95606.73
2019-03-04T06:37:16.249Z,95605.86
2019-03-04T06:39:48.234Z,95598.62
2019-03-04T06:42:19.874Z,95587.94
2019-03-04T06:44:51.401Z,95570.89
2019-03-04T06:47:23.043Z,95567.48
2019-03-04T06:49:54.502Z,95557.26
2019-03-04T06:52:27.126Z,95552.89
2019-03-04T06:55:33.552Z,95548.34
2019-03-04T06:58:04.872Z,95549.05
2019-03-04T07:01:06.098Z,95542.65
2019-03-04T07:03:45.259Z,95536.77
2019-03-04T07:06:16.562Z,95524.94
2019-03-04T07:09:17.222Z,95514.44
2019-03-04T07:11:54.058Z,95517.57
2019-03-04T07:14:25.416Z,95504.99
2019-03-04T07:16:56.982Z,95496.74
2019-03-04T07:19:34.256Z,95492.91
2019-03-04T07:22:05.909Z,95489.13
2019-03-04T07:24:37.157Z,95494.60
2019-03-04T07:27:08.540Z,95486.06
2019-03-04T07:29:39.856Z,95483.81
2019-03-04T07:32:11.501Z,95491.92
2019-03-04T07:34:42.806Z,95484.59
2019-03-04T07:37:14.036Z,95482.13
2019-03-04T07:39:45.706Z,95472.64
2019-03-04T07:42:16.936Z,95468.98
2019-03-04T07:44:48.475Z,95476.13
2019-03-04T07:47:19.632Z,95481.64
2019-03-04T07:49:51.723Z,95489.17
2019-03-04T07:52:22.885Z,95496.94
2019-03-04T07:54:54.104Z,95494.45
2019-03-04T07:57:25.743Z,95489.00
2019-03-04T07:59:56.893Z,95488.80
2019-03-04T08:02:28.132Z,95480.36
2019-03-04T08:04:59.776Z,95474.96
2019-03-04T08:07:50.772Z,95479.79
2019-03-04T08:11:34.160Z,95465.11
2019-03-04T08:14:05.571Z,95449.03
2019-03-04T08:16:38.079Z,95467.49
2019-03-04T08:19:09.335Z,95477.88
2019-03-04T08:21:40.738Z,95471.63
2019-03-04T08:24:12.350Z,95488.50
2019-03-04T08:26:43.695Z,95489.59
2019-03-04T08:29:15.600Z,95501.02
2019-03-04T08:31:47.038Z,95503.11
2019-03-04T08:34:18.303Z,95509.12
2019-03-04T08:36:50.287Z,95518.69
2019-03-04T08:39:22.965Z,95518.93
2019-03-04T08:41:54.613Z,95525.94
2019-03-04T08:44:26.267Z,95524.59
2019-03-04T08:46:57.685Z,95535.47
2019-03-04T08:49:28.933Z,95536.05
2019-03-04T08:52:00.328Z,95538.60
2019-03-04T08:54:31.780Z,95531.31
2019-03-04T08:57:04.171Z,95532.70
2019-03-04T08:59:35.622Z,95535.30
2019-03-04T09:02:07.503Z,95535.53
2019-03-04T09:04:39.022Z,95541.00
2019-03-04T09:07:10.412Z,95530.02
2019-03-04T09:09:41.629Z,95543.78
2019-03-04T09:12:12.809Z,95538.20
2019-03-04T09:14:44.445Z,95528.53
2019-03-04T09:17:15.727Z,95536.89
2019-03-04T09:19:46.957Z,95532.05
2019-03-04T09:22:18.371Z,95521.50
2019-03-04T09:24:49.703Z,95529.09
2019-03-04T09:27:21.426Z,95535.77
2019-03-04T09:29:52.669Z,95526.11
2019-03-04T09:32:24.353Z,95524.22
2019-03-04T09:34:55.737Z,95525.75
2019-03-04T09:37:27.085Z,95533.76
2019-03-04T09:39:58.977Z,95525.18
2019-03-04T09:42:31.817Z,95528.48
2019-03-04T09:45:03.111Z,95517.77
2019-03-04T09:47:34.536Z,95510.26
2019-03-04T09:50:08.963Z,95501.78
2019-03-04T09:52:40.399Z,95512.95
2019-03-04T09:55:13.602Z,95529.30
2019-03-04T09:57:45.052Z,95526.44
2019-03-04T10:01:03.066Z,95550.73
2019-03-04T10:04:19.763Z,95547.39
2019-03-04T10:08:01.699Z,95543.20
2019-03-04T10:11:26.567Z,95551.59
2019-03-04T10:14:22.602Z,95540.58
2019-03-04T10:17:59.691Z,95546.66
2019-03-04T10:21:18.850Z,95541.52
2019-03-04T10:24:33.141Z,95545.84
2019-03-04T10:27:33.319Z,95558.31
2019-03-04T10:30:57.123Z,95560.95
2019-03-04T10:34:15.769Z,95564.34
2019-03-04T10:37:36.216Z,95579.66
2019-03-04T10:41:05.324Z,95566.56
2019-03-04T10:44:55.228Z,95595.36
2019-03-04T10:47:26.527Z,95601.09
2019-03-04T10:49:58.128Z,95595.81
2019-03-04T10:52:29.591Z,95604.50
2019-03-04T10:55:01.606Z,95596.09
2019-03-04T10:57:33.813Z,95623.67
2019-03-04T11:00:11.980Z,95625.87
2019-03-04T11:02:44.012Z,95615.24
2019-03-04T11:05:15.771Z,95598.80
2019-03-04T11:07:47.224Z,95601.96
2019-03-04T11:10:18.489Z,95605.87
2019-03-04T11:12:49.656Z,95630.61
2019-03-04T11:15:24.251Z,95593.28
2019-03-04T11:17:56.208Z,95595.04
2019-03-04T11:20:27.663Z,95614.18
2019-03-04T11:22:59.192Z,95596.67
2019-03-04T11:25:30.634Z,95609.34
2019-03-04T11:28:02.067Z,95598.47
2019-03-04T11:30:33.682Z,95604.00
2019-03-04T11:33:05.172Z,95587.13
2019-03-04T11:35:36.968Z,95597.89
2019-03-04T11:38:28.928Z,95599.61
2019-03-04T11:41:00.290Z,95625.38
2019-03-04T11:43:32.006Z,95622.98
2019-03-04T11:46:03.400Z,95605.83
2019-03-04T11:48:34.785Z,95628.78
2019-03-04T11:51:07.096Z,95570.33
2019-03-04T11:53:38.469Z,95607.41
2019-03-04T11:56:09.855Z,95562.64
2019-03-04T11:58:41.188Z,95552.16
2019-03-04T12:01:15.931Z,95555.61
2019-03-04T12:03:47.164Z,95541.35
2019-03-04T12:06:18.739Z,95535.95
2019-03-04T12:08:50.047Z,95514.53
2019-03-04T12:11:22.457Z,95529.61
2019-03-04T12:13:53.796Z,95570.53
2019-03-04T12:16:25.581Z,95564.66
2019-03-04T12:18:56.993Z,95580.20
2019-03-04T12:21:28.469Z,95580.63
2019-03-04T12:24:00.408Z,95596.41
2019-03-04T12:26:31.716Z,95575.94
2019-03-04T12:29:03.231Z,95590.80
2019-03-04T12:31:44.060Z,95605.67
2019-03-04T12:34:24.964Z,95614.41
2019-03-04T12:36:55.534Z,95614.09
2019-03-04T12:39:28.008Z,95617.24
2019-03-04T12:41:59.657Z,95611.65
2019-03-04T12:44:31.012Z,95593.45
2019-03-04T12:47:02.252Z,95594.50
2019-03-04T12:49:33.962Z,95591.22
2019-03-04T12:52:05.359Z,95582.67
2019-03-04T12:54:36.889Z,95651.49
2019-03-04T12:57:08.523Z,95633.13
2019-03-04T12:59:40.228Z,95642.31
2019-03-04T13:02:11.647Z,95625.67
2019-03-04T13:04:43.634Z,95612.98
2019-03-04T13:07:15.227Z,95615.23
2019-03-04T13:09:47.193Z,95586.69
2019-03-04T13:12:18.575Z,95611.63
2019-03-04T13:14:50.146Z,95616.86
2019-03-04T13:17:21.467Z,95613.48
2019-03-04T13:19:53.176Z,95613.52
2019-03-04T13:22:25.323Z,95620.43
2019-03-04T13:24:56.701Z,95613.56
2019-03-04T13:27:28.019Z,95617.00
2019-03-04T13:29:59.378Z,95610.63
2019-03-04T13:32:30.806Z,95610.20
2019-03-04T13:35:02.099Z,95603.79
2019-03-04T13:37:33.419Z,95613.77
2019-03-04T13:40:05.507Z,95610.30
2019-03-04T13:42:37.661Z,95606.93
2019-03-04T13:45:11.585Z,95597.09
2019-03-04T13:47:43.220Z,95607.03
2019-03-04T13:50:18.620Z,95607.49
2019-03-04T13:52:50.463Z,95609.27
2019-03-04T13:55:21.904Z,95609.73
2019-03-04T13:57:53.520Z,95605.38
2019-03-04T14:00:24.919Z,95617.83
2019-03-04T14:02:56.321Z,95595.11
2019-03-04T14:05:27.607Z,95577.88
2019-03-04T14:07:58.968Z,95584.31
2019-03-04T14:10:33.505Z,95575.66
2019-03-04T14:13:04.996Z,95587.25
2019-03-04T14:15:39.574Z,95573.91
2019-03-04T14:18:11.208Z,95570.88
2019-03-04T14:20:42.636Z,95566.58
2019-03-04T14:23:14.619Z,95568.69
2019-03-04T14:25:46.059Z,95561.00
2019-03-04T14:28:17.634Z,95560.61
2019-03-04T14:30:48.912Z,95552.88
2019-03-04T14:33:20.354Z,95553.77
2019-03-04T14:35:52.294Z,95554.59
2019-03-04T14:38:23.595Z,95567.91
2019-03-04T14:40:54.737Z,95555.02
2019-03-04T14:43:25.995Z,95544.76
2019-03-04T14:45:57.754Z,95540.57
2019-03-04T14:48:29.161Z,95557.31
2019-03-04T14:51:00.496Z,95543.94
2019-03-04T14:53:32.167Z,95545.69
2019-03-04T14:56:03.546Z,95561.14
2019-03-04T14:58:35.148Z,95571.05
2019-03-04T15:01:06.992Z,95555.59
2019-03-04T15:03:38.428Z,95562.96
2019-03-04T15:06:09.977Z,95559.98
2019-03-04T15:08:42.203Z,95576.76
2019-03-04T15:11:14.231Z,95572.83
2019-03-04T15:13:45.636Z,95570.32
2019-03-04T15:16:17.149Z,95562.14
2019-03-04T15:18:48.384Z,95565.11
2019-03-04T15:21:19.731Z,95558.77
2019-03-04T15:23:51.314Z,95558.30
2019-03-04T15:26:22.726Z,95552.37
2019-03-04T15:28:53.976Z,95562.70
2019-03-04T15:31:26.278Z,95545.53
2019-03-04T15:33:58.234Z,95547.19
2019-03-04T15:36:29.490Z,95560.81
2019-03-04T15:39:01.568Z,95547.11
2019-03-04T15:41:40.128Z,95554.27
2019-03-04T15:44:07.888Z,95542.17
2019-03-04T15:46:39.266Z,95528.03
2019-03-04T15:49:10.685Z,95514.78
2019-03-04T15:51:41.950Z,95515.42
2019-03-04T15:54:13.638Z,95506.39
2019-03-04T15:56:44.956Z,95490.19
2019-03-04T15:59:16.690Z,95485.56
2019-03-04T16:01:48.013Z,95482.75
2019-03-04T16:04:19.405Z,95466.06
2019-03-04T16:06:50.851Z,95477.44
2019-03-04T16:09:23.490Z,95468.13
2019-03-04T16:11:54.881Z,95462.00
2019-03-04T16:14:26.421Z,95464.59
2019-03-04T16:16:58.144Z,95444.39
2019-03-04T16:19:29.856Z,95441.86
2019-03-04T16:22:01.439Z,95451.70
2019-03-04T16:24:33.276Z,95454.89
2019-03-04T16:27:11.988Z,95460.28
2019-03-04T16:29:43.707Z,95476.95
2019-03-04T16:32:15.359Z,95482.70
2019-03-04T16:34:47.753Z,95463.03
2019-03-04T16:37:19.047Z,95468.86
2019-03-04T16:39:50.450Z,95469.44
2019-03-04T16:42:22.328Z,95474.84
2019-03-04T16:44:53.671Z,95482.78
2019-03-04T16:47:24.921Z,95487.17
2019-03-04T16:49:56.219Z,95489.41
2019-03-04T16:52:30.627Z,95493.00
2019-03-04T16:55:02.041Z,95494.88
2019-03-04T16:57:33.450Z,95497.02
2019-03-04T17:00:06.188Z,95489.76
2019-03-04T17:02:39.192Z,95496.95
2019-03-04T17:05:12.732Z,95495.33
2019-03-04T17:07:44.309Z,95506.94
2019-03-04T17:10:17.500Z,95505.80
2019-03-04T17:12:49.368Z,95495.82
2019-03-04T17:15:21.197Z,95514.70
2019-03-04T17:17:52.779Z,95523.85
2019-03-04T17:20:24.429Z,95525.08
2019-03-04T17:22:55.988Z,95519.83
2019-03-04T17:25:27.714Z,95533.00
2019-03-04T17:27:59.535Z,95535.91
2019-03-04T17:30:31.598Z,95539.42
2019-03-04T17:33:03.651Z,95549.71
2019-03-04T17:35:35.202Z,95563.11
2019-03-04T17:38:06.573Z,95568.26
2019-03-04T17:40:38.467Z,95562.14
2019-03-04T17:43:10.409Z,95577.89
2019-03-04T17:45:42.414Z,95581.58
2019-03-04T17:48:13.919Z,95608.97
2019-03-04T17:50:45.520Z,95637.31
2019-03-04T17:53:17.099Z,95646.47
2019-03-04T17:55:48.870Z,95672.41
2019-03-04T17:58:20.373Z,95672.62
2019-03-04T18:00:54.081Z,95712.10
2019-03-04T18:03:25.620Z,95724.67
2019-03-04T18:05:57.181Z,95751.05
2019-03-04T18:08:29.023Z,95751.38
2019-03-04T18:11:00.435Z,95741.59
2019-03-04T18:13:32.580Z,95749.32
2019-03-04T18:16:04.641Z,95718.56
2019-03-04T18:18:37.381Z,95738.20
2019-03-04T18:21:08.865Z,95749.73
2019-03-04T18:23:40.592Z,95762.11
2019-03-04T18:26:20.961Z,95770.25
2019-03-04T18:29:33.766Z,95779.20
2019-03-04T18:33:16.925Z,95780.48
2019-03-04T18:36:57.064Z,95773.66
2019-03-04T18:40:27.573Z,95764.27
2019-03-04T18:44:12.072Z,95803.95
2019-03-04T18:47:27.460Z,95783.45
2019-03-04T18:49:58.763Z,95801.75
2019-03-04T18:52:30.357Z,95811.94
2019-03-04T18:55:08.210Z,95812.78
2019-03-04T18:57:39.701Z,95831.59
2019-03-04T19:00:15.754Z,95834.16
2019-03-04T19:02:48.394Z,95836.72
2019-03-04T19:05:19.813Z,95830.73
2019-03-04T19:07:51.387Z,95845.22
2019-03-04T19:10:22.906Z,95850.77
2019-03-04T19:12:54.449Z,95866.11
2019-03-04T19:15:25.825Z,95887.47
2019-03-04T19:17:57.312Z,95889.56
2019-03-04T19:20:28.798Z,95901.14
2019-03-04T19:23:00.717Z,95914.32
2019-03-04T19:25:32.222Z,95909.55
2019-03-04T19:28:04.807Z,95905.59
2019-03-04T19:30:36.769Z,95911.80
2019-03-04T19:33:08.225Z,95914.25
2019-03-04T19:35:39.844Z,95930.41
2019-03-04T19:38:11.464Z,95946.05
2019-03-04T19:40:42.908Z,95958.53
2019-03-04T19:43:14.551Z,95974.25
2019-03-04T19:45:46.416Z,95990.45
2019-03-04T19:48:18.710Z,95997.25
2019-03-04T19:50:50.176Z,96005.38
2019-03-04T19:53:21.666Z,96011.77
2019-03-04T19:55:54.345Z,96023.64
2019-03-04T19:58:25.801Z,96035.86
2019-03-04T20:00:58.221Z,96038.01
2019-03-04T20:03:30.184Z,96044.31
2019-03-04T20:06:03.059Z,96042.88
2019-03-04T20:08:34.697Z,96048.84
2019-03-04T20:11:06.809Z,96053.96
2019-03-04T20:13:38.631Z,96057.33
2019-03-04T20:16:11.313Z,96059.02
2019-03-04T20:18:42.702Z,96061.05
2019-03-04T20:21:14.587Z,96069.53
2019-03-04T20:23:45.995Z,96072.14
2019-03-04T20:26:17.859Z,96070.75
2019-03-04T20:28:49.486Z,96077.93
2019-03-04T20:31:20.921Z,96077.95
2019-03-04T20:33:52.498Z,96088.58
2019-03-04T20:36:25.928Z,96089.48
2019-03-04T20:38:57.621Z,96090.23
2019-03-04T20:41:29.692Z,96097.77
2019-03-04T20:44:01.315Z,96102.90
2019-03-04T20:46:33.250Z,96113.57
2019-03-04T20:49:04.830Z,96114.50
2019-03-04T20:51:36.301Z,96115.25
2019-03-04T20:54:09.613Z,96108.42
2019-03-04T20:56:41.603Z,96114.37
2019-03-04T20:59:13.031Z,96108.58
2019-03-04T21:01:45.216Z,96109.34
2019-03-04T21:04:17.114Z,96120.75
2019-03-04T21:06:48.886Z,96122.47
2019-03-04T21:09:20.987Z,96122.11
2019-03-04T21:11:52.641Z,96128.62
2019-03-04T21:14:24.252Z,96116.77
2019-03-04T21:16:55.890Z,96120.30
2019-03-04T21:19:27.460Z,96122.87
2019-03-04T21:21:58.954Z,96125.94
2019-03-04T21:24:30.842Z,96128.95
2019-03-04T21:27:02.344Z,96127.21
2019-03-04T21:30:23.097Z,96139.48
2019-03-04T21:33:28.323Z,96144.59
2019-03-04T21:36:54.897Z,96153.54
2019-03-04T21:39:36.300Z,96149.25
2019-03-04T21:42:39.791Z,96147.56
2019-03-04T21:46:22.902Z,96147.96
2019-03-04T21:49:00.602Z,96155.58
2019-03-04T21:52:42.851Z,96151.38
2019-03-04T21:55:29.808Z,96151.69
2019-03-04T21:58:02.039Z,96163.19
2019-03-04T22:00:41.458Z,96162.37
2019-03-04T22:03:27.072Z,96170.45
2019-03-04T22:05:59.863Z,96167.13
2019-03-04T22:08:31.517Z,96164.70
2019-03-04T22:11:03.854Z,96146.48
2019-03-04T22:13:35.491Z,96172.93
2019-03-04T22:16:07.157Z,96163.17
2019-03-04T22:18:38.723Z,96171.30
2019-03-04T22:21:16.683Z,96160.20
2019-03-04T22:23:45.373Z,96172.98
2019-03-04T22:26:17.487Z,96168.28
2019-03-04T22:28:49.190Z,96174.67
2019-03-04T22:31:20.971Z,96177.55
2019-03-04T22:33:52.520Z,96180.04
2019-03-04T22:36:24.400Z,96174.87
2019-03-04T22:38:56.057Z,96195.25
2019-03-04T22:41:27.896Z,96212.28
2019-03-04T22:43:59.396Z,96214.25
2019-03-04T22:46:31.290Z,96211.44
2019-03-04T22:49:02.919Z,96217.27
2019-03-04T22:51:34.444Z,96215.52
2019-03-04T22:54:06.172Z,96228.17
2019-03-04T22:56:37.489Z,96231.03
2019-03-04T22:59:08.915Z,96224.98
2019-03-04T23:02:02.752Z,96228.82
2019-03-04T23:04:44.544Z,96228.49
2019-03-04T23:07:47.236Z,96230.56
2019-03-04T23:10:48.903Z,96225.87
2019-03-04T23:14:12.172Z,96240.12
2019-03-04T23:16:43.828Z,96238.31
2019-03-04T23:19:15.364Z,96240.12
2019-03-04T23:21:47.046Z,96238.77
2019-03-04T23:24:18.589Z,96237.45
2019-03-04T23:26:50.103Z,96236.22
2019-03-04T23:29:21.921Z,96244.74
2019-03-04T23:31:53.391Z,96241.73
2019-03-04T23:34:24.886Z,96242.61
2019-03-04T23:36:56.847Z,96236.56
2019-03-04T23:39:28.363Z,96242.06
2019-03-04T23:42:00.313Z,96248.91
2019-03-04T23:44:32.413Z,96238.70
2019-03-04T23:47:03.690Z,96243.27
2019-03-04T23:49:35.335Z,96243.25
2019-03-04T23:52:07.383Z,96246.69
2019-03-04T23:54:38.874Z,96244.48
2019-03-04T23:57:10.862Z,96245.33
2019-03-04T23:59:42.267Z,96246.20
